Gowganda, Canada
Current Conditions -  °F | °C
As of 11:00 PM on Friday 28 Nov 2014 (Local Time) from CYXR Reporting Station
Overcast Overcast  
Wind Chill: -10°   Ceiling: 5000
Heat Index:   Visibility: 9mi
Dew Point: -2°   Wind: 6mph
Humidity: 85%   Direction: 150°SSE
Pressure: 30.1"   Gusts: NA
Location:  47.65°N, 80.78°W
Report Text: CYXR 290400Z AUTO 15005KT 9SM OVC050 M17/M19 A3010 RMK ICG INTMT SLP218
Loading
Personal Weather Stations






























Interactive Weather Map New forecast layout! Learn more

10-Day Weather Forecast

Advertisements
Track Severe Weather on mobile